Sitka, AK

2:24 AM AKDT on September 19, 2014 (GMT -0800)
Port Alexander | Change Station
CLOSE
Current Station
Airport
Location: Port Alexander,
Elevation: 0 ft
Nearby Weather Stations

Elev 0 ft 56.25 °N, 134.65 °W | Updated 7 hours ago

Rain
Rain
54 °F
Feels Like 54 °F
N
34
Wind Variable Wind from SW
Gusts 43 mph

Today
High -- | Low -- °F
--% Chance of Precip.
Yesterday
High -- | Low -- °F
Precip. -- in
6:40 AM 7:08 PM
Waning Crescent, 20% visible
Pressure 29.24 in
Visibility 10.0 miles
Clouds Mostly Cloudy 2000 ft
Overcast 4000 ft
Dew Point 52 °F
Humidity 95%
Rainfall 0.00 in
Snow Depth Not available.
UV 0 out of 12
Pollen Not available.
Air Quality Not available.
Flu Activity Not available.
METAR PAAP 190250Z 20012KT 10SM -RA BKN020 OVC040 13/11 A2924 RMK LAST NO SPECI

More Conditions Fewer Conditions

Pressure 29.24 in
Visibility 10.0 miles
Clouds Mostly Cloudy 2000 ft
Overcast 4000 ft
Dew Point 52 °F
Humidity 95%
Rainfall 0.00 in
Snow Depth Not available.
UV 0 out of 12
Pollen Not available.
Air Quality Not available.
Flu Activity Not available.
METAR PAAP 190250Z 20012KT 10SM -RA BKN020 OVC040 13/11 A2924 RMK LAST NO SPECI

More Conditions Fewer Conditions

10-Day Weather Forecast

Almanac

Astronomy

Sep. 19, 2014 Rise Set
Actual Time 6:40 AM AKDT 7:08 PM AKDT
Civil Twilight 6:02 AM AKDT 7:46 PM AKDT
Nautical Twilight 5:15 AM AKDT 8:32 PM AKDT
Astronomical Twilight 4:25 AM AKDT 9:21 PM AKDT
Moon 1:53 AM AKDT 5:15 PM AKDT
Length of Visible Light 13h 44m
Length of Day
12h 27m
Tomorrow will be 4m 48s shorter.
Waning Crescent, 20% of the Moon is Illuminated
Today
Waning Crescent
Sep 24
New
Oct 1
First Quarter
Oct 8
Full
Oct 15
Last Quarter

Today's Extremes

State Highs State Lows

Community

WunderPhotos

Upload Photos

1,754,583 photos uploaded!

Nearby

Snow Depth

Station Depth Elevation
Atigun Pass 2 in 4800 ft
Indian Pass 2 in 2300 ft
Eagle Summit 0 in 3650 ft
Granite Creek 0 in 1240 ft
Coldfoot 0 in 1040 ft

Earthquake Activity

City Distance Mag. Time & Date
No recent earthquake activity has been reported nearby.
Minimum magnitude displayed is 2.5.

Coastal Water Temperatures

Place Temperature
No Stations Reporting

Nearby Weather Stations